createdAt,value
2022-08-08T00:00:55.558Z,353.57
2022-08-08T00:05:10.891Z,353.65
2022-08-08T00:10:18.079Z,353.20
2022-08-08T00:15:57.182Z,352.85
2022-08-08T00:20:32.708Z,352.89
2022-08-08T00:25:46.379Z,352.68
2022-08-08T00:31:00.702Z,353.01
2022-08-08T00:35:54.386Z,352.79
2022-08-08T00:41:12.382Z,353.73
2022-08-08T00:46:16.593Z,353.73
2022-08-08T00:51:18.107Z,353.43
2022-08-08T00:56:23.917Z,353.66
2022-08-08T01:01:37.967Z,353.78
2022-08-08T01:06:37.646Z,354.67
2022-08-08T01:11:44.864Z,354.43
2022-08-08T01:16:52.089Z,354.80
2022-08-08T01:22:09.912Z,354.47
2022-08-08T01:27:10.637Z,354.41
2022-08-08T01:32:15.776Z,354.37
2022-08-08T01:37:21.887Z,354.09
2022-08-08T01:42:35.783Z,353.83
2022-08-08T01:48:14.499Z,354.19
2022-08-08T01:52:56.032Z,353.69
2022-08-08T01:58:13.342Z,354.11
2022-08-08T02:02:57.555Z,354.25
2022-08-08T02:08:04.796Z,353.95
2022-08-08T02:13:53.336Z,353.64
2022-08-08T02:18:19.211Z,353.15
2022-08-08T02:23:31.658Z,353.26
2022-08-08T02:28:35.027Z,352.77
2022-08-08T02:33:41.427Z,352.52
2022-08-08T02:38:49.215Z,351.93
2022-08-08T02:44:44.853Z,351.44
2022-08-08T02:49:02.447Z,351.15
2022-08-08T02:54:09.711Z,351.27
2022-08-08T02:59:25.959Z,351.64
2022-08-08T03:05:05.204Z,351.82
2022-08-08T03:09:31.441Z,351.97
2022-08-08T03:15:59.702Z,351.95
2022-08-08T03:19:50.878Z,351.82
2022-08-08T03:24:57.043Z,351.02
2022-08-08T03:30:00.202Z,350.77
2022-08-08T03:35:09.547Z,350.88
2022-08-08T03:40:30.203Z,350.90
2022-08-08T03:46:03.033Z,350.57
2022-08-08T03:50:29.134Z,350.35
2022-08-08T03:55:57.259Z,350.41
2022-08-08T04:01:02.657Z,350.60
2022-08-08T04:05:50.710Z,350.34
2022-08-08T04:11:00.047Z,350.04
2022-08-08T04:16:05.633Z,350.28
2022-08-08T04:21:12.356Z,349.79
2022-08-08T04:26:19.711Z,349.04
2022-08-08T04:31:56.650Z,348.75
2022-08-08T04:36:34.023Z,348.14
2022-08-08T04:41:43.197Z,347.25
2022-08-08T04:46:52.504Z,346.75
2022-08-08T04:51:57.890Z,346.52
2022-08-08T04:57:04.863Z,346.35
2022-08-08T05:02:13.509Z,345.80
2022-08-08T05:07:19.252Z,345.68
2022-08-08T05:12:28.922Z,345.96
2022-08-08T05:17:53.668Z,346.29
2022-08-08T05:22:40.871Z,346.38
2022-08-08T05:27:48.071Z,346.22
2022-08-08T05:32:55.222Z,345.72
2022-08-08T05:38:02.414Z,345.13
2022-08-08T05:43:40.021Z,345.03
2022-08-08T05:48:16.899Z,345.34
2022-08-08T05:54:26.265Z,344.56
2022-08-08T05:58:33.399Z,344.97
2022-08-08T06:03:38.558Z,344.28
2022-08-08T06:08:53.198Z,344.04
2022-08-08T06:13:52.943Z,343.52
2022-08-08T06:19:00.184Z,343.00
2022-08-08T06:24:13.993Z,342.74
2022-08-08T06:29:49.345Z,342.53
2022-08-08T06:34:27.391Z,342.35
2022-08-08T06:39:33.346Z,342.21
2022-08-08T06:44:42.243Z,341.84
2022-08-08T06:49:56.173Z,341.63
2022-08-08T06:54:52.015Z,341.59
2022-08-08T07:00:10.218Z,341.46
2022-08-08T07:05:06.476Z,341.35
2022-08-08T07:10:13.669Z,341.49
2022-08-08T07:15:32.529Z,340.90
2022-08-08T07:20:28.400Z,341.08
2022-08-08T07:25:35.310Z,341.02
2022-08-08T07:30:42.494Z,340.67
2022-08-08T07:35:51.258Z,340.78
2022-08-08T07:40:56.907Z,340.75
2022-08-08T07:46:17.645Z,340.69
2022-08-08T07:51:24.355Z,340.42
2022-08-08T07:56:36.436Z,340.63
2022-08-08T08:01:27.084Z,340.54
2022-08-08T08:06:33.063Z,340.80
2022-08-08T08:11:52.476Z,340.57
2022-08-08T08:16:48.515Z,340.64
2022-08-08T08:22:00.674Z,340.62
2022-08-08T08:27:02.825Z,340.70
2022-08-08T08:32:09.299Z,340.52
2022-08-08T08:37:16.500Z,340.38
2022-08-08T08:42:31.593Z,340.09
2022-08-08T08:47:33.766Z,339.98
2022-08-08T08:52:38.167Z,340.29
2022-08-08T08:57:45.371Z,339.91
2022-08-08T09:02:52.566Z,339.66
2022-08-08T09:08:12.799Z,340.00
2022-08-08T09:13:06.972Z,339.85
2022-08-08T09:18:14.219Z,339.87
2022-08-08T09:23:25.739Z,340.54
2022-08-08T09:28:37.437Z,340.52
2022-08-08T09:34:15.851Z,340.76
2022-08-08T09:38:53.110Z,340.72
2022-08-08T09:44:06.236Z,340.63
2022-08-08T09:48:57.338Z,340.92
2022-08-08T09:54:09.661Z,341.05
2022-08-08T09:59:40.322Z,341.22
2022-08-08T10:04:38.533Z,341.90
2022-08-08T10:09:26.189Z,342.01
2022-08-08T10:14:38.193Z,342.25
2022-08-08T10:19:46.309Z,342.85
2022-08-08T10:24:48.048Z,342.25
2022-08-08T10:29:58.759Z,342.82
2022-08-08T10:35:02.500Z,342.99
2022-08-08T10:40:09.780Z,343.20
2022-08-08T10:45:16.940Z,343.62
2022-08-08T10:50:24.124Z,343.76
2022-08-08T10:55:41.700Z,343.72
2022-08-08T11:00:53.443Z,343.79
2022-08-08T11:05:45.729Z,343.43
2022-08-08T11:10:52.985Z,343.30
2022-08-08T11:16:01.404Z,344.44
2022-08-08T11:21:09.800Z,344.04
2022-08-08T11:26:18.734Z,344.53
2022-08-08T11:31:21.804Z,345.87
2022-08-08T11:36:29.560Z,345.63
2022-08-08T11:41:36.193Z,345.50
2022-08-08T11:46:43.380Z,346.17
2022-08-08T11:51:52.277Z,345.91
2022-08-08T11:56:58.488Z,346.56
2022-08-08T12:02:30.449Z,346.40
2022-08-08T12:07:16.730Z,347.29
2022-08-08T12:12:19.482Z,347.30
2022-08-08T12:17:26.719Z,347.41
2022-08-08T12:22:44.803Z,347.79
2022-08-08T12:27:45.548Z,347.39
2022-08-08T12:32:48.428Z,348.17
2022-08-08T12:38:02.009Z,347.95
2022-08-08T12:43:03.791Z,349.00
2022-08-08T12:48:35.867Z,348.67
2022-08-08T12:53:17.185Z,349.18
2022-08-08T12:58:24.458Z,348.91
2022-08-08T13:03:33.520Z,349.43
2022-08-08T13:08:38.839Z,349.19
2022-08-08T13:13:45.995Z,349.76
2022-08-08T13:18:58.236Z,349.89
2022-08-08T13:24:00.375Z,349.76
2022-08-08T13:29:07.566Z,349.92
2022-08-08T13:34:14.792Z,349.76
2022-08-08T13:39:22.102Z,350.79
2022-08-08T13:44:29.256Z,351.55
2022-08-08T13:50:36.015Z,351.09
2022-08-08T13:54:44.207Z,351.70
2022-08-08T13:59:50.791Z,351.46
2022-08-08T14:04:58.012Z,351.70
2022-08-08T14:10:11.788Z,351.52
2022-08-08T14:15:12.453Z,351.71
2022-08-08T14:20:56.436Z,351.55
2022-08-08T14:25:26.912Z,351.48
2022-08-08T14:30:34.103Z,351.25
2022-08-08T14:35:41.330Z,351.58
2022-08-08T14:40:48.546Z,351.57
2022-08-08T14:46:02.963Z,350.99
2022-08-08T14:51:02.940Z,351.64
2022-08-08T14:56:10.147Z,351.67
2022-08-08T15:01:23.767Z,351.16
2022-08-08T15:06:24.953Z,351.25
2022-08-08T15:11:43.092Z,351.10
2022-08-08T15:16:39.385Z,350.98
2022-08-08T15:21:46.658Z,351.16
2022-08-08T15:26:53.928Z,351.48
2022-08-08T15:32:19.947Z,351.51
2022-08-08T15:37:08.326Z,351.65
2022-08-08T15:42:31.238Z,351.32
2022-08-08T15:47:22.875Z,351.77
2022-08-08T15:52:31.309Z,352.22
2022-08-08T15:57:39.900Z,351.96
2022-08-08T16:02:51.188Z,352.27
2022-08-08T16:07:53.837Z,352.10
2022-08-08T16:13:15.850Z,351.62
2022-08-08T16:18:12.102Z,352.11
2022-08-08T16:23:16.090Z,352.20
2022-08-08T16:28:33.957Z,352.04
2022-08-08T16:33:39.412Z,352.11
2022-08-08T16:38:44.712Z,351.99
2022-08-08T16:43:49.105Z,352.26
2022-08-08T16:48:51.308Z,352.52
2022-08-08T16:55:05.725Z,352.75
2022-08-08T16:59:05.786Z,352.78
2022-08-08T17:04:13.063Z,352.59
2022-08-08T17:09:23.839Z,352.59
2022-08-08T17:14:34.102Z,352.12
2022-08-08T17:19:40.894Z,351.49
2022-08-08T17:24:43.727Z,350.52
2022-08-08T17:29:56.738Z,350.49
2022-08-08T17:35:53.858Z,350.16
2022-08-08T17:40:12.848Z,350.03
2022-08-08T17:45:14.187Z,349.34
2022-08-08T17:50:19.767Z,349.00
2022-08-08T17:56:05.884Z,347.83
2022-08-08T18:00:39.043Z,347.67
2022-08-08T18:05:48.064Z,346.86
2022-08-08T18:10:48.669Z,346.43
2022-08-08T18:16:04.294Z,345.54
2022-08-08T18:21:03.155Z,345.44
2022-08-08T18:26:10.258Z,345.38
2022-08-08T18:31:17.497Z,344.98
2022-08-08T18:36:25.473Z,344.64
2022-08-08T18:41:51.806Z,345.37
2022-08-08T18:46:54.874Z,344.49
2022-08-08T18:51:53.734Z,344.71
2022-08-08T18:56:53.695Z,344.18
2022-08-08T19:02:27.394Z,343.61
2022-08-08T19:07:08.106Z,342.61
2022-08-08T19:12:15.282Z,342.04
2022-08-08T19:17:28.764Z,341.77
2022-08-08T19:22:29.696Z,341.35
2022-08-08T19:27:55.748Z,340.52
2022-08-08T19:32:44.058Z,340.18
2022-08-08T19:37:55.367Z,339.87
2022-08-08T19:42:58.533Z,339.60
2022-08-08T19:48:05.810Z,339.88
2022-08-08T19:53:46.754Z,339.70
2022-08-08T19:58:20.322Z,338.96
2022-08-08T20:04:01.263Z,338.73
2022-08-08T20:08:34.931Z,338.66
2022-08-08T20:14:13.905Z,338.44
2022-08-08T20:18:52.655Z,338.48
2022-08-08T20:23:58.201Z,337.93
2022-08-08T20:29:04.038Z,337.99
2022-08-08T20:34:29.166Z,337.60
2022-08-08T20:39:18.465Z,337.75
2022-08-08T20:44:25.646Z,337.70
2022-08-08T20:49:39.971Z,337.59
2022-08-08T20:54:40.037Z,337.55
2022-08-08T20:59:47.278Z,337.65
2022-08-08T21:04:54.468Z,337.75
2022-08-08T21:10:12.473Z,338.05
2022-08-08T21:15:09.389Z,337.54
2022-08-08T21:20:16.108Z,337.49
2022-08-08T21:25:23.339Z,337.49
2022-08-08T21:30:30.594Z,337.91
2022-08-08T21:36:17.152Z,337.94
2022-08-08T21:40:55.658Z,337.85
2022-08-08T21:48:20.297Z,337.66
2022-08-08T21:50:59.541Z,337.67
2022-08-08T21:56:26.642Z,337.59
2022-08-08T22:01:27.787Z,337.90
2022-08-08T22:06:30.847Z,338.13
2022-08-08T22:11:58.837Z,338.12
2022-08-08T22:16:35.667Z,337.94
2022-08-08T22:21:42.823Z,337.75
2022-08-08T22:27:01.232Z,338.10
2022-08-08T22:32:02.189Z,338.40
2022-08-08T22:37:05.163Z,338.03
2022-08-08T22:42:12.359Z,337.91
2022-08-08T22:47:19.619Z,337.54
2022-08-08T22:52:33.719Z,337.98
2022-08-08T22:57:44.117Z,338.25
2022-08-08T23:02:41.257Z,337.90
2022-08-08T23:07:57.196Z,338.10
2022-08-08T23:12:56.125Z,338.09
2022-08-08T23:18:02.793Z,338.03
2022-08-08T23:23:09.975Z,338.66
2022-08-08T23:28:17.684Z,338.48
2022-08-08T23:34:17.563Z,338.98
2022-08-08T23:38:31.548Z,338.75
2022-08-08T23:43:45.832Z,338.38
2022-08-08T23:49:00.077Z,338.24
2022-08-08T23:54:05.760Z,338.64
2022-08-08T23:59:00.476Z,338.57
